sensor_id;sensor_type;location;lat;lon;timestamp;P1;durP1;ratioP1;P2;durP2;ratioP2
40781;SDS011;26493;51.938;7.626;2024-03-23T00:56:04;20.48;;;18.67;;
40781;SDS011;26493;51.938;7.626;2024-03-23T00:58:30;20.02;;;18.23;;
40781;SDS011;26493;51.938;7.626;2024-03-23T01:00:56;19.13;;;17.33;;
40781;SDS011;26493;51.938;7.626;2024-03-23T01:03:22;18.60;;;16.80;;
40781;SDS011;26493;51.938;7.626;2024-03-23T01:05:48;18.48;;;16.67;;
40781;SDS011;26493;51.938;7.626;2024-03-23T01:08:14;18.48;;;16.67;;
40781;SDS011;26493;51.938;7.626;2024-03-23T01:10:40;19.77;;;17.98;;
40781;SDS011;26493;51.938;7.626;2024-03-23T01:13:06;20.25;;;18.45;;
40781;SDS011;26493;51.938;7.626;2024-03-23T01:15:32;20.48;;;18.67;;
40781;SDS011;26493;51.938;7.626;2024-03-23T01:17:58;22.48;;;20.58;;
40781;SDS011;26493;51.938;7.626;2024-03-23T01:20:24;23.27;;;21.38;;
40781;SDS011;26493;51.938;7.626;2024-03-23T01:22:50;23.75;;;21.85;;
40781;SDS011;26493;51.938;7.626;2024-03-23T01:25:16;24.35;;;22.45;;
40781;SDS011;26493;51.938;7.626;2024-03-23T01:27:42;26.70;;;24.70;;
40781;SDS011;26493;51.938;7.626;2024-03-23T01:30:08;25.95;;;23.95;;
40781;SDS011;26493;51.938;7.626;2024-03-23T01:32:34;27.20;;;25.10;;
40781;SDS011;26493;51.938;7.626;2024-03-23T01:35:00;27.88;;;25.77;;
40781;SDS011;26493;51.938;7.626;2024-03-23T01:37:26;30.10;;;27.90;;
40781;SDS011;26493;51.938;7.626;2024-03-23T01:39:52;29.98;;;27.77;;
40781;SDS011;26493;51.938;7.626;2024-03-23T01:42:18;30.60;;;28.40;;
40781;SDS011;26493;51.938;7.626;2024-03-23T01:44:44;30.40;;;28.20;;
40781;SDS011;26493;51.938;7.626;2024-03-23T01:47:10;30.35;;;28.15;;
40781;SDS011;26493;51.938;7.626;2024-03-23T01:49:36;30.33;;;28.13;;
40781;SDS011;26493;51.938;7.626;2024-03-23T01:52:02;30.48;;;28.27;;
40781;SDS011;26493;51.938;7.626;2024-03-23T01:54:29;30.35;;;28.15;;
40781;SDS011;26493;51.938;7.626;2024-03-23T01:56:55;30.45;;;28.25;;
40781;SDS011;26493;51.938;7.626;2024-03-23T01:59:21;31.17;;;28.98;;
40781;SDS011;26493;51.938;7.626;2024-03-23T02:01:47;31.27;;;29.05;;
40781;SDS011;26493;51.938;7.626;2024-03-23T02:04:13;31.25;;;28.95;;
40781;SDS011;26493;51.938;7.626;2024-03-23T02:06:39;30.85;;;28.65;;
40781;SDS011;26493;51.938;7.626;2024-03-23T02:09:05;31.40;;;29.10;;
40781;SDS011;26493;51.938;7.626;2024-03-23T02:11:31;30.15;;;27.95;;
40781;SDS011;26493;51.938;7.626;2024-03-23T02:13:57;31.65;;;29.35;;
40781;SDS011;26493;51.938;7.626;2024-03-23T02:16:23;30.10;;;27.90;;
40781;SDS011;26493;51.938;7.626;2024-03-23T02:18:49;31.40;;;29.20;;
40781;SDS011;26493;51.938;7.626;2024-03-23T02:21:15;29.90;;;27.70;;
40781;SDS011;26493;51.938;7.626;2024-03-23T02:23:41;30.55;;;28.35;;
40781;SDS011;26493;51.938;7.626;2024-03-23T02:26:07;30.88;;;28.67;;
40781;SDS011;26493;51.938;7.626;2024-03-23T02:28:33;31.92;;;29.65;;
40781;SDS011;26493;51.938;7.626;2024-03-23T02:30:59;31.73;;;29.50;;
40781;SDS011;26493;51.938;7.626;2024-03-23T02:33:26;32.20;;;29.90;;
40781;SDS011;26493;51.938;7.626;2024-03-23T02:35:55;31.65;;;29.35;;
40781;SDS011;26493;51.938;7.626;2024-03-23T02:38:21;30.98;;;28.77;;
40781;SDS011;26493;51.938;7.626;2024-03-23T02:40:47;32.63;;;30.33;;
40781;SDS011;26493;51.938;7.626;2024-03-23T02:43:13;30.95;;;28.75;;
40781;SDS011;26493;51.938;7.626;2024-03-23T02:45:39;32.08;;;29.77;;
40781;SDS011;26493;51.938;7.626;2024-03-23T02:48:05;30.48;;;28.27;;
40781;SDS011;26493;51.938;7.626;2024-03-23T02:50:31;29.73;;;27.52;;
40781;SDS011;26493;51.938;7.626;2024-03-23T02:52:57;29.35;;;27.15;;
40781;SDS011;26493;51.938;7.626;2024-03-23T02:55:23;29.40;;;27.20;;
40781;SDS011;26493;51.938;7.626;2024-03-23T02:57:49;29.35;;;27.15;;
40781;SDS011;26493;51.938;7.626;2024-03-23T03:00:15;27.90;;;25.80;;
40781;SDS011;26493;51.938;7.626;2024-03-23T03:02:41;27.85;;;25.75;;
40781;SDS011;26493;51.938;7.626;2024-03-23T03:05:07;27.60;;;25.50;;
40781;SDS011;26493;51.938;7.626;2024-03-23T03:07:34;27.55;;;25.45;;
40781;SDS011;26493;51.938;7.626;2024-03-23T03:10:00;27.45;;;25.35;;
40781;SDS011;26493;51.938;7.626;2024-03-23T03:12:26;27.02;;;24.92;;
40781;SDS011;26493;51.938;7.626;2024-03-23T03:14:52;27.48;;;25.38;;
40781;SDS011;26493;51.938;7.626;2024-03-23T03:17:18;27.17;;;25.08;;
40781;SDS011;26493;51.938;7.626;2024-03-23T03:19:44;27.00;;;24.90;;
40781;SDS011;26493;51.938;7.626;2024-03-23T03:22:10;27.58;;;25.48;;
40781;SDS011;26493;51.938;7.626;2024-03-23T03:24:36;26.70;;;24.60;;
40781;SDS011;26493;51.938;7.626;2024-03-23T03:27:02;26.40;;;24.40;;
40781;SDS011;26493;51.938;7.626;2024-03-23T03:29:28;26.35;;;24.35;;
40781;SDS011;26493;51.938;7.626;2024-03-23T03:32:00;26.30;;;24.30;;
40781;SDS011;26493;51.938;7.626;2024-03-23T03:34:26;26.42;;;24.42;;
40781;SDS011;26493;51.938;7.626;2024-03-23T03:36:52;26.65;;;24.55;;
40781;SDS011;26493;51.938;7.626;2024-03-23T03:39:18;26.80;;;24.70;;
40781;SDS011;26493;51.938;7.626;2024-03-23T03:41:44;26.77;;;24.77;;
40781;SDS011;26493;51.938;7.626;2024-03-23T03:44:10;26.75;;;24.65;;
40781;SDS011;26493;51.938;7.626;2024-03-23T03:46:36;27.42;;;25.33;;
40781;SDS011;26493;51.938;7.626;2024-03-23T03:49:02;27.33;;;25.23;;
40781;SDS011;26493;51.938;7.626;2024-03-23T03:51:28;26.73;;;24.67;;
40781;SDS011;26493;51.938;7.626;2024-03-23T03:53:54;27.55;;;25.45;;
40781;SDS011;26493;51.938;7.626;2024-03-23T03:56:20;27.67;;;25.58;;
40781;SDS011;26493;51.938;7.626;2024-03-23T03:58:47;28.00;;;25.90;;
40781;SDS011;26493;51.938;7.626;2024-03-23T04:01:13;28.35;;;26.25;;
40781;SDS011;26493;51.938;7.626;2024-03-23T04:03:39;27.85;;;25.75;;
40781;SDS011;26493;51.938;7.626;2024-03-23T04:06:08;27.60;;;25.50;;
40781;SDS011;26493;51.938;7.626;2024-03-23T04:08:34;27.42;;;25.33;;
40781;SDS011;26493;51.938;7.626;2024-03-23T04:11:00;27.05;;;24.95;;
40781;SDS011;26493;51.938;7.626;2024-03-23T04:13:26;27.00;;;24.90;;
40781;SDS011;26493;51.938;7.626;2024-03-23T04:15:56;27.02;;;24.92;;
40781;SDS011;26493;51.938;7.626;2024-03-23T04:18:22;26.50;;;24.50;;
40781;SDS011;26493;51.938;7.626;2024-03-23T04:20:49;26.88;;;24.83;;
40781;SDS011;26493;51.938;7.626;2024-03-23T04:23:15;27.30;;;25.20;;
40781;SDS011;26493;51.938;7.626;2024-03-23T04:25:41;27.45;;;25.35;;
40781;SDS011;26493;51.938;7.626;2024-03-23T04:28:06;27.73;;;25.63;;
40781;SDS011;26493;51.938;7.626;2024-03-23T04:30:32;27.05;;;24.95;;
40781;SDS011;26493;51.938;7.626;2024-03-23T04:32:58;26.98;;;24.98;;
40781;SDS011;26493;51.938;7.626;2024-03-23T04:35:25;26.88;;;24.88;;
40781;SDS011;26493;51.938;7.626;2024-03-23T04:37:52;27.27;;;25.17;;
40781;SDS011;26493;51.938;7.626;2024-03-23T04:40:18;27.10;;;25.00;;
40781;SDS011;26493;51.938;7.626;2024-03-23T04:42:45;27.25;;;25.15;;
40781;SDS011;26493;51.938;7.626;2024-03-23T04:45:11;26.88;;;24.77;;
40781;SDS011;26493;51.938;7.626;2024-03-23T04:47:37;27.05;;;24.95;;
40781;SDS011;26493;51.938;7.626;2024-03-23T04:50:04;27.13;;;25.02;;
40781;SDS011;26493;51.938;7.626;2024-03-23T04:52:30;27.52;;;25.42;;
40781;SDS011;26493;51.938;7.626;2024-03-23T04:54:56;27.65;;;25.55;;
40781;SDS011;26493;51.938;7.626;2024-03-23T04:57:22;27.45;;;25.35;;
40781;SDS011;26493;51.938;7.626;2024-03-23T04:59:48;27.13;;;25.02;;
40781;SDS011;26493;51.938;7.626;2024-03-23T05:02:14;27.45;;;25.35;;
40781;SDS011;26493;51.938;7.626;2024-03-23T05:04:41;27.67;;;25.58;;
40781;SDS011;26493;51.938;7.626;2024-03-23T05:07:07;27.55;;;25.45;;
40781;SDS011;26493;51.938;7.626;2024-03-23T05:09:33;27.50;;;25.40;;
40781;SDS011;26493;51.938;7.626;2024-03-23T05:11:59;27.45;;;25.35;;
40781;SDS011;26493;51.938;7.626;2024-03-23T05:14:26;27.25;;;25.15;;
40781;SDS011;26493;51.938;7.626;2024-03-23T05:16:52;27.35;;;25.25;;
40781;SDS011;26493;51.938;7.626;2024-03-23T05:19:18;27.40;;;25.30;;
40781;SDS011;26493;51.938;7.626;2024-03-23T05:21:44;27.65;;;25.55;;
40781;SDS011;26493;51.938;7.626;2024-03-23T05:24:11;27.40;;;25.30;;
40781;SDS011;26493;51.938;7.626;2024-03-23T05:26:37;27.50;;;25.40;;
40781;SDS011;26493;51.938;7.626;2024-03-23T05:29:03;27.33;;;25.23;;
40781;SDS011;26493;51.938;7.626;2024-03-23T05:31:30;26.58;;;24.58;;
40781;SDS011;26493;51.938;7.626;2024-03-23T05:33:56;27.13;;;25.02;;
40781;SDS011;26493;51.938;7.626;2024-03-23T05:36:22;27.23;;;25.13;;
40781;SDS011;26493;51.938;7.626;2024-03-23T05:38:49;27.55;;;25.45;;
40781;SDS011;26493;51.938;7.626;2024-03-23T05:41:15;27.45;;;25.35;;
40781;SDS011;26493;51.938;7.626;2024-03-23T05:43:41;27.13;;;25.02;;
40781;SDS011;26493;51.938;7.626;2024-03-23T05:46:07;27.30;;;25.20;;
40781;SDS011;26493;51.938;7.626;2024-03-23T05:48:34;27.05;;;24.95;;
40781;SDS011;26493;51.938;7.626;2024-03-23T05:51:00;26.58;;;24.58;;
40781;SDS011;26493;51.938;7.626;2024-03-23T05:53:26;27.02;;;24.92;;
40781;SDS011;26493;51.938;7.626;2024-03-23T05:56:00;26.27;;;24.27;;
40781;SDS011;26493;51.938;7.626;2024-03-23T05:58:26;26.80;;;24.75;;
40781;SDS011;26493;51.938;7.626;2024-03-23T06:00:56;26.58;;;24.58;;
40781;SDS011;26493;51.938;7.626;2024-03-23T06:03:23;26.35;;;24.35;;
40781;SDS011;26493;51.938;7.626;2024-03-23T06:05:49;25.73;;;23.73;;
40781;SDS011;26493;51.938;7.626;2024-03-23T06:08:15;25.67;;;23.67;;
40781;SDS011;26493;51.938;7.626;2024-03-23T06:10:42;24.55;;;22.55;;
40781;SDS011;26493;51.938;7.626;2024-03-23T06:13:08;23.75;;;21.85;;
40781;SDS011;26493;51.938;7.626;2024-03-23T06:15:33;22.55;;;20.65;;
40781;SDS011;26493;51.938;7.626;2024-03-23T06:18:02;21.38;;;19.48;;
40781;SDS011;26493;51.938;7.626;2024-03-23T06:20:29;20.60;;;18.80;;
40781;SDS011;26493;51.938;7.626;2024-03-23T06:22:55;19.98;;;18.17;;
40781;SDS011;26493;51.938;7.626;2024-03-23T06:25:21;19.83;;;18.02;;
40781;SDS011;26493;51.938;7.626;2024-03-23T06:27:47;18.88;;;17.08;;
40781;SDS011;26493;51.938;7.626;2024-03-23T06:30:13;17.55;;;15.85;;
40781;SDS011;26493;51.938;7.626;2024-03-23T06:32:39;16.13;;;14.43;;
40781;SDS011;26493;51.938;7.626;2024-03-23T06:35:05;15.48;;;13.88;;
40781;SDS011;26493;51.938;7.626;2024-03-23T06:37:36;15.07;;;13.47;;
40781;SDS011;26493;51.938;7.626;2024-03-23T06:40:03;15.10;;;13.35;;
40781;SDS011;26493;51.938;7.626;2024-03-23T06:42:33;14.90;;;12.82;;
40781;SDS011;26493;51.938;7.626;2024-03-23T06:44:59;14.73;;;12.20;;
40781;SDS011;26493;51.938;7.626;2024-03-23T06:47:25;14.40;;;11.25;;
40781;SDS011;26493;51.938;7.626;2024-03-23T06:49:51;14.30;;;10.77;;
40781;SDS011;26493;51.938;7.626;2024-03-23T06:52:17;14.07;;;10.32;;
40781;SDS011;26493;51.938;7.626;2024-03-23T06:54:43;13.90;;;9.70;;
40781;SDS011;26493;51.938;7.626;2024-03-23T06:57:10;13.80;;;9.35;;
40781;SDS011;26493;51.938;7.626;2024-03-23T06:59:37;13.55;;;8.60;;
40781;SDS011;26493;51.938;7.626;2024-03-23T07:02:03;13.40;;;8.30;;
40781;SDS011;26493;51.938;7.626;2024-03-23T07:04:29;13.27;;;8.05;;
40781;SDS011;26493;51.938;7.626;2024-03-23T07:06:55;13.32;;;8.10;;
40781;SDS011;26493;51.938;7.626;2024-03-23T07:09:21;13.27;;;8.00;;
40781;SDS011;26493;51.938;7.626;2024-03-23T07:11:51;13.20;;;7.88;;
40781;SDS011;26493;51.938;7.626;2024-03-23T07:14:17;13.40;;;8.10;;
40781;SDS011;26493;51.938;7.626;2024-03-23T07:16:43;13.10;;;7.80;;
40781;SDS011;26493;51.938;7.626;2024-03-23T07:19:09;12.98;;;7.68;;
40781;SDS011;26493;51.938;7.626;2024-03-23T07:21:35;13.07;;;7.78;;
40781;SDS011;26493;51.938;7.626;2024-03-23T07:24:01;13.13;;;7.72;;
40781;SDS011;26493;51.938;7.626;2024-03-23T07:26:27;12.90;;;7.53;;
40781;SDS011;26493;51.938;7.626;2024-03-23T07:28:53;12.88;;;7.55;;
40781;SDS011;26493;51.938;7.626;2024-03-23T07:31:19;13.38;;;8.00;;
40781;SDS011;26493;51.938;7.626;2024-03-23T07:33:46;13.45;;;8.20;;
40781;SDS011;26493;51.938;7.626;2024-03-23T07:36:12;13.32;;;7.90;;
40781;SDS011;26493;51.938;7.626;2024-03-23T07:38:41;13.30;;;7.90;;
40781;SDS011;26493;51.938;7.626;2024-03-23T07:41:08;13.07;;;7.72;;
40781;SDS011;26493;51.938;7.626;2024-03-23T07:43:35;13.13;;;7.80;;
40781;SDS011;26493;51.938;7.626;2024-03-23T07:46:01;13.43;;;8.20;;
40781;SDS011;26493;51.938;7.626;2024-03-23T07:48:29;13.18;;;7.80;;
40781;SDS011;26493;51.938;7.626;2024-03-23T07:53:27;13.23;;;7.80;;
40781;SDS011;26493;51.938;7.626;2024-03-23T07:55:54;13.18;;;7.80;;
40781;SDS011;26493;51.938;7.626;2024-03-23T07:58:20;13.02;;;7.55;;
40781;SDS011;26493;51.938;7.626;2024-03-23T08:00:46;13.23;;;8.00;;
40781;SDS011;26493;51.938;7.626;2024-03-23T08:03:12;12.90;;;7.55;;
40781;SDS011;26493;51.938;7.626;2024-03-23T08:05:38;13.18;;;7.70;;
40781;SDS011;26493;51.938;7.626;2024-03-23T08:08:04;13.05;;;7.65;;
40781;SDS011;26493;51.938;7.626;2024-03-23T08:10:30;13.00;;;7.60;;
40781;SDS011;26493;51.938;7.626;2024-03-23T08:12:56;13.13;;;7.72;;
40781;SDS011;26493;51.938;7.626;2024-03-23T08:15:23;12.95;;;7.63;;
40781;SDS011;26493;51.938;7.626;2024-03-23T08:17:49;13.48;;;8.30;;
40781;SDS011;26493;51.938;7.626;2024-03-23T08:20:15;13.32;;;8.07;;
40781;SDS011;26493;51.938;7.626;2024-03-23T08:22:41;13.50;;;8.30;;
40781;SDS011;26493;51.938;7.626;2024-03-23T08:25:07;13.38;;;8.02;;
40781;SDS011;26493;51.938;7.626;2024-03-23T08:27:33;13.25;;;7.85;;
40781;SDS011;26493;51.938;7.626;2024-03-23T08:29:59;13.23;;;7.85;;
40781;SDS011;26493;51.938;7.626;2024-03-23T08:32:25;13.43;;;8.20;;
40781;SDS011;26493;51.938;7.626;2024-03-23T08:34:51;13.55;;;8.65;;
40781;SDS011;26493;51.938;7.626;2024-03-23T08:37:17;13.70;;;8.98;;
40781;SDS011;26493;51.938;7.626;2024-03-23T08:39:43;13.60;;;8.60;;
40781;SDS011;26493;51.938;7.626;2024-03-23T08:42:09;13.60;;;8.60;;
40781;SDS011;26493;51.938;7.626;2024-03-23T08:44:35;13.43;;;8.25;;
40781;SDS011;26493;51.938;7.626;2024-03-23T08:47:01;13.55;;;8.65;;
40781;SDS011;26493;51.938;7.626;2024-03-23T08:49:28;13.77;;;9.10;;
40781;SDS011;26493;51.938;7.626;2024-03-23T08:51:54;13.60;;;8.65;;
40781;SDS011;26493;51.938;7.626;2024-03-23T08:54:20;13.57;;;8.60;;
40781;SDS011;26493;51.938;7.626;2024-03-23T08:56:48;13.50;;;8.30;;
40781;SDS011;26493;51.938;7.626;2024-03-23T08:59:14;13.57;;;8.50;;
40781;SDS011;26493;51.938;7.626;2024-03-23T09:01:40;13.52;;;8.40;;
40781;SDS011;26493;51.938;7.626;2024-03-23T09:04:06;13.63;;;8.75;;
40781;SDS011;26493;51.938;7.626;2024-03-23T09:06:32;13.48;;;8.27;;
40781;SDS011;26493;51.938;7.626;2024-03-23T09:08:58;13.70;;;8.90;;
40781;SDS011;26493;51.938;7.626;2024-03-23T09:11:23;13.45;;;8.18;;
40781;SDS011;26493;51.938;7.626;2024-03-23T09:13:49;13.32;;;8.18;;
40781;SDS011;26493;51.938;7.626;2024-03-23T09:16:15;13.40;;;8.30;;
40781;SDS011;26493;51.938;7.626;2024-03-23T09:18:41;13.45;;;8.10;;
40781;SDS011;26493;51.938;7.626;2024-03-23T09:21:11;13.50;;;8.32;;
40781;SDS011;26493;51.938;7.626;2024-03-23T09:23:42;13.60;;;8.65;;
40781;SDS011;26493;51.938;7.626;2024-03-23T09:26:08;15.45;;;10.25;;
40781;SDS011;26493;51.938;7.626;2024-03-23T09:28:34;20.95;;;8.77;;
40781;SDS011;26493;51.938;7.626;2024-03-23T09:31:07;13.35;;;7.82;;
40781;SDS011;26493;51.938;7.626;2024-03-23T09:33:34;16.13;;;9.52;;
40781;SDS011;26493;51.938;7.626;2024-03-23T09:36:03;13.95;;;8.25;;
40781;SDS011;26493;51.938;7.626;2024-03-23T09:38:30;23.00;;;8.23;;
40781;SDS011;26493;51.938;7.626;2024-03-23T09:40:56;14.90;;;8.43;;
40781;SDS011;26493;51.938;7.626;2024-03-23T09:43:22;13.00;;;7.70;;
40781;SDS011;26493;51.938;7.626;2024-03-23T09:45:49;15.88;;;8.85;;
40781;SDS011;26493;51.938;7.626;2024-03-23T09:48:15;12.48;;;7.35;;
40781;SDS011;26493;51.938;7.626;2024-03-23T09:50:44;12.98;;;7.88;;
40781;SDS011;26493;51.938;7.626;2024-03-23T09:53:11;12.73;;;7.47;;
40781;SDS011;26493;51.938;7.626;2024-03-23T09:55:37;14.20;;;7.85;;
40781;SDS011;26493;51.938;7.626;2024-03-23T09:58:04;13.95;;;8.35;;
40781;SDS011;26493;51.938;7.626;2024-03-23T10:00:30;13.25;;;7.95;;
40781;SDS011;26493;51.938;7.626;2024-03-23T10:02:57;15.13;;;8.32;;
40781;SDS011;26493;51.938;7.626;2024-03-23T10:05:26;14.27;;;7.93;;
40781;SDS011;26493;51.938;7.626;2024-03-23T10:07:53;16.50;;;8.73;;
40781;SDS011;26493;51.938;7.626;2024-03-23T10:10:19;13.18;;;7.65;;
40781;SDS011;26493;51.938;7.626;2024-03-23T10:12:48;13.63;;;7.93;;
40781;SDS011;26493;51.938;7.626;2024-03-23T10:15:22;14.27;;;9.45;;
40781;SDS011;26493;51.938;7.626;2024-03-23T10:17:48;12.60;;;7.32;;
40781;SDS011;26493;51.938;7.626;2024-03-23T10:20:20;13.70;;;8.50;;
40781;SDS011;26493;51.938;7.626;2024-03-23T10:22:48;13.50;;;8.15;;
40781;SDS011;26493;51.938;7.626;2024-03-23T10:25:14;18.23;;;8.80;;
40781;SDS011;26493;51.938;7.626;2024-03-23T10:27:41;13.60;;;8.55;;
40781;SDS011;26493;51.938;7.626;2024-03-23T10:30:09;20.05;;;9.43;;
40781;SDS011;26493;51.938;7.626;2024-03-23T10:32:35;13.63;;;8.32;;
40781;SDS011;26493;51.938;7.626;2024-03-23T10:35:17;13.70;;;8.52;;
40781;SDS011;26493;51.938;7.626;2024-03-23T10:37:49;15.77;;;8.73;;
40781;SDS011;26493;51.938;7.626;2024-03-23T10:40:17;13.68;;;8.43;;
40781;SDS011;26493;51.938;7.626;2024-03-23T10:42:46;13.90;;;8.80;;
40781;SDS011;26493;51.938;7.626;2024-03-23T10:45:12;13.35;;;7.95;;
40781;SDS011;26493;51.938;7.626;2024-03-23T10:47:38;13.52;;;8.45;;
40781;SDS011;26493;51.938;7.626;2024-03-23T10:50:04;13.57;;;8.57;;
40781;SDS011;26493;51.938;7.626;2024-03-23T10:52:31;13.60;;;8.55;;
40781;SDS011;26493;51.938;7.626;2024-03-23T10:54:57;13.45;;;8.15;;
40781;SDS011;26493;51.938;7.626;2024-03-23T10:57:27;13.55;;;8.05;;
40781;SDS011;26493;51.938;7.626;2024-03-23T10:59:55;13.45;;;8.30;;
40781;SDS011;26493;51.938;7.626;2024-03-23T11:02:22;13.43;;;8.02;;
40781;SDS011;26493;51.938;7.626;2024-03-23T11:04:48;13.45;;;8.10;;
40781;SDS011;26493;51.938;7.626;2024-03-23T11:09:50;13.50;;;8.25;;
40781;SDS011;26493;51.938;7.626;2024-03-23T11:15:03;13.80;;;8.93;;
40781;SDS011;26493;51.938;7.626;2024-03-23T11:17:29;13.55;;;8.50;;
40781;SDS011;26493;51.938;7.626;2024-03-23T11:19:59;14.60;;;9.15;;
40781;SDS011;26493;51.938;7.626;2024-03-23T11:25:21;13.65;;;8.38;;
40781;SDS011;26493;51.938;7.626;2024-03-23T11:27:48;13.65;;;8.15;;
40781;SDS011;26493;51.938;7.626;2024-03-23T11:32:49;14.35;;;8.32;;
40781;SDS011;26493;51.938;7.626;2024-03-23T11:35:35;14.30;;;8.63;;
40781;SDS011;26493;51.938;7.626;2024-03-23T11:40:33;14.18;;;8.07;;
40781;SDS011;26493;51.938;7.626;2024-03-23T11:43:00;13.23;;;7.80;;
40781;SDS011;26493;51.938;7.626;2024-03-23T11:45:26;13.25;;;7.90;;
40781;SDS011;26493;51.938;7.626;2024-03-23T11:50:29;16.67;;;7.78;;
40781;SDS011;26493;51.938;7.626;2024-03-23T11:53:12;12.88;;;7.50;;
40781;SDS011;26493;51.938;7.626;2024-03-23T11:55:39;11.88;;;7.20;;
40781;SDS011;26493;51.938;7.626;2024-03-23T11:58:05;13.48;;;7.95;;
40781;SDS011;26493;51.938;7.626;2024-03-23T12:00:31;12.63;;;7.55;;
40781;SDS011;26493;51.938;7.626;2024-03-23T12:03:04;17.65;;;8.25;;
40781;SDS011;26493;51.938;7.626;2024-03-23T12:05:31;12.00;;;7.10;;
40781;SDS011;26493;51.938;7.626;2024-03-23T12:10:44;12.60;;;7.55;;
40781;SDS011;26493;51.938;7.626;2024-03-23T12:13:10;12.77;;;7.40;;
40781;SDS011;26493;51.938;7.626;2024-03-23T12:15:36;13.52;;;8.35;;
40781;SDS011;26493;51.938;7.626;2024-03-23T12:18:06;14.40;;;8.32;;
40781;SDS011;26493;51.938;7.626;2024-03-23T12:20:32;13.13;;;7.72;;
40781;SDS011;26493;51.938;7.626;2024-03-23T12:23:11;12.82;;;7.38;;
40781;SDS011;26493;51.938;7.626;2024-03-23T12:25:38;12.60;;;7.35;;
40781;SDS011;26493;51.938;7.626;2024-03-23T12:28:04;13.32;;;8.07;;
40781;SDS011;26493;51.938;7.626;2024-03-23T12:30:31;13.27;;;7.75;;
40781;SDS011;26493;51.938;7.626;2024-03-23T12:32:57;13.10;;;7.63;;
40781;SDS011;26493;51.938;7.626;2024-03-23T12:35:23;12.77;;;7.40;;
40781;SDS011;26493;51.938;7.626;2024-03-23T12:37:49;15.57;;;8.10;;
40781;SDS011;26493;51.938;7.626;2024-03-23T12:40:15;15.10;;;13.00;;
40781;SDS011;26493;51.938;7.626;2024-03-23T12:42:41;15.57;;;13.88;;
40781;SDS011;26493;51.938;7.626;2024-03-23T12:45:07;14.60;;;11.40;;
40781;SDS011;26493;51.938;7.626;2024-03-23T12:47:33;13.88;;;9.25;;
40781;SDS011;26493;51.938;7.626;2024-03-23T12:49:59;13.93;;;9.45;;
40781;SDS011;26493;51.938;7.626;2024-03-23T12:52:25;13.88;;;9.52;;
40781;SDS011;26493;51.938;7.626;2024-03-23T12:54:58;14.00;;;9.77;;
40781;SDS011;26493;51.938;7.626;2024-03-23T12:57:24;13.93;;;9.60;;
40781;SDS011;26493;51.938;7.626;2024-03-23T12:59:53;14.05;;;9.85;;
40781;SDS011;26493;51.938;7.626;2024-03-23T13:02:19;14.07;;;9.90;;
40781;SDS011;26493;51.938;7.626;2024-03-23T13:04:46;14.30;;;10.38;;
40781;SDS011;26493;51.938;7.626;2024-03-23T13:07:12;13.85;;;9.40;;
40781;SDS011;26493;51.938;7.626;2024-03-23T13:09:38;13.75;;;9.10;;
40781;SDS011;26493;51.938;7.626;2024-03-23T13:12:04;15.55;;;8.70;;
40781;SDS011;26493;51.938;7.626;2024-03-23T13:14:30;13.35;;;8.10;;
40781;SDS011;26493;51.938;7.626;2024-03-23T13:16:56;13.75;;;8.70;;
40781;SDS011;26493;51.938;7.626;2024-03-23T13:19:22;14.70;;;9.18;;
40781;SDS011;26493;51.938;7.626;2024-03-23T13:21:52;14.05;;;8.20;;
40781;SDS011;26493;51.938;7.626;2024-03-23T13:24:21;13.38;;;8.32;;
40781;SDS011;26493;51.938;7.626;2024-03-23T13:29:12;15.18;;;9.05;;
40781;SDS011;26493;51.938;7.626;2024-03-23T13:31:39;13.52;;;8.18;;
40781;SDS011;26493;51.938;7.626;2024-03-23T13:34:05;14.75;;;8.85;;
40781;SDS011;26493;51.938;7.626;2024-03-23T13:36:31;13.90;;;8.35;;
40781;SDS011;26493;51.938;7.626;2024-03-23T13:38:57;13.18;;;7.78;;
40781;SDS011;26493;51.938;7.626;2024-03-23T13:41:23;13.52;;;8.60;;
40781;SDS011;26493;51.938;7.626;2024-03-23T13:43:49;13.52;;;8.48;;
40781;SDS011;26493;51.938;7.626;2024-03-23T13:46:15;13.60;;;8.55;;
40781;SDS011;26493;51.938;7.626;2024-03-23T13:48:41;14.20;;;9.00;;
40781;SDS011;26493;51.938;7.626;2024-03-23T13:51:07;14.40;;;10.90;;
40781;SDS011;26493;51.938;7.626;2024-03-23T13:53:33;18.02;;;16.13;;
40781;SDS011;26493;51.938;7.626;2024-03-23T13:55:59;20.13;;;18.23;;
40781;SDS011;26493;51.938;7.626;2024-03-23T13:58:26;21.52;;;19.52;;
40781;SDS011;26493;51.938;7.626;2024-03-23T14:00:52;23.65;;;21.65;;
40781;SDS011;26493;51.938;7.626;2024-03-23T14:03:18;21.33;;;19.42;;
40781;SDS011;26493;51.938;7.626;2024-03-23T14:05:44;20.27;;;18.38;;
40781;SDS011;26493;51.938;7.626;2024-03-23T14:08:12;18.03;;;16.23;;
40781;SDS011;26493;51.938;7.626;2024-03-23T14:10:41;17.25;;;15.55;;
40781;SDS011;26493;51.938;7.626;2024-03-23T14:13:08;15.93;;;14.23;;
40781;SDS011;26493;51.938;7.626;2024-03-23T14:15:34;16.23;;;14.52;;
40781;SDS011;26493;51.938;7.626;2024-03-23T14:18:01;15.77;;;14.07;;
40781;SDS011;26493;51.938;7.626;2024-03-23T14:20:28;16.25;;;14.55;;
40781;SDS011;26493;51.938;7.626;2024-03-23T14:22:54;19.40;;;16.98;;
40781;SDS011;26493;51.938;7.626;2024-03-23T14:25:21;16.38;;;14.63;;
40781;SDS011;26493;51.938;7.626;2024-03-23T14:27:52;17.15;;;15.32;;
40781;SDS011;26493;51.938;7.626;2024-03-23T14:30:18;16.27;;;14.57;;
40781;SDS011;26493;51.938;7.626;2024-03-23T14:32:44;15.68;;;13.98;;
40781;SDS011;26493;51.938;7.626;2024-03-23T14:35:10;15.30;;;13.48;;
40781;SDS011;26493;51.938;7.626;2024-03-23T14:37:37;15.30;;;13.40;;
40781;SDS011;26493;51.938;7.626;2024-03-23T14:40:03;15.02;;;11.70;;
40781;SDS011;26493;51.938;7.626;2024-03-23T14:42:29;14.02;;;9.82;;
40781;SDS011;26493;51.938;7.626;2024-03-23T14:44:58;15.20;;;10.63;;
40781;SDS011;26493;51.938;7.626;2024-03-23T14:47:24;15.85;;;9.80;;
40781;SDS011;26493;51.938;7.626;2024-03-23T14:49:50;13.68;;;8.88;;
40781;SDS011;26493;51.938;7.626;2024-03-23T14:52:17;13.60;;;8.75;;
40781;SDS011;26493;51.938;7.626;2024-03-23T14:54:46;13.63;;;8.90;;
40781;SDS011;26493;51.938;7.626;2024-03-23T14:57:12;13.90;;;9.93;;
40781;SDS011;26493;51.938;7.626;2024-03-23T14:59:38;13.68;;;8.90;;
40781;SDS011;26493;51.938;7.626;2024-03-23T15:02:05;13.60;;;8.48;;
40781;SDS011;26493;51.938;7.626;2024-03-23T15:04:31;16.00;;;8.50;;
40781;SDS011;26493;51.938;7.626;2024-03-23T15:06:57;13.48;;;8.40;;
40781;SDS011;26493;51.938;7.626;2024-03-23T15:09:23;13.40;;;7.82;;
40781;SDS011;26493;51.938;7.626;2024-03-23T15:11:49;13.43;;;8.13;;
40781;SDS011;26493;51.938;7.626;2024-03-23T15:14:15;13.20;;;7.82;;
40781;SDS011;26493;51.938;7.626;2024-03-23T15:16:41;13.35;;;7.90;;
40781;SDS011;26493;51.938;7.626;2024-03-23T15:19:07;14.13;;;8.20;;
40781;SDS011;26493;51.938;7.626;2024-03-23T15:21:33;13.50;;;7.97;;
40781;SDS011;26493;51.938;7.626;2024-03-23T15:24:00;14.02;;;8.52;;
40781;SDS011;26493;51.938;7.626;2024-03-23T15:26:27;13.27;;;8.10;;
40781;SDS011;26493;51.938;7.626;2024-03-23T15:28:53;22.38;;;10.10;;
40781;SDS011;26493;51.938;7.626;2024-03-23T15:31:21;13.13;;;7.68;;
40781;SDS011;26493;51.938;7.626;2024-03-23T15:33:47;13.73;;;9.32;;
40781;SDS011;26493;51.938;7.626;2024-03-23T15:36:13;14.20;;;8.00;;
40781;SDS011;26493;51.938;7.626;2024-03-23T15:38:39;12.88;;;8.00;;
40781;SDS011;26493;51.938;7.626;2024-03-23T15:41:05;12.40;;;7.20;;
40781;SDS011;26493;51.938;7.626;2024-03-23T15:43:32;12.68;;;7.38;;